sensor_id;sensor_type;location;lat;lon;timestamp;pressure;altitude;pressure_sealevel;temperature;humidity
12666;BME280;58531;59.050;17.416;2023-11-18T00:01:31;101744.56;;;-5.59;100.00
12666;BME280;58531;59.050;17.416;2023-11-18T00:03:58;101744.56;;;-5.59;100.00
12666;BME280;58531;59.050;17.416;2023-11-18T00:06:25;101742.88;;;-5.55;100.00
12666;BME280;58531;59.050;17.416;2023-11-18T00:08:52;101741.94;;;-5.59;100.00
12666;BME280;58531;59.050;17.416;2023-11-18T00:11:19;101748.53;;;-5.62;100.00
12666;BME280;58531;59.050;17.416;2023-11-18T00:13:46;101735.06;;;-5.64;100.00
12666;BME280;58531;59.050;17.416;2023-11-18T00:16:14;101741.47;;;-5.61;100.00
12666;BME280;58531;59.050;17.416;2023-11-18T00:18:42;101743.50;;;-5.58;100.00
12666;BME280;58531;59.050;17.416;2023-11-18T00:21:09;101746.56;;;-5.56;100.00
12666;BME280;58531;59.050;17.416;2023-11-18T00:23:37;101743.03;;;-5.60;100.00
12666;BME280;58531;59.050;17.416;2023-11-18T00:26:04;101744.25;;;-5.58;100.00
12666;BME280;58531;59.050;17.416;2023-11-18T00:28:32;101742.44;;;-5.57;100.00
12666;BME280;58531;59.050;17.416;2023-11-18T00:30:59;101747.63;;;-5.57;100.00
12666;BME280;58531;59.050;17.416;2023-11-18T00:33:27;101738.19;;;-5.75;100.00
12666;BME280;58531;59.050;17.416;2023-11-18T00:35:54;101744.75;;;-5.86;100.00
12666;BME280;58531;59.050;17.416;2023-11-18T00:38:21;101751.75;;;-5.95;100.00
12666;BME280;58531;59.050;17.416;2023-11-18T00:40:48;101747.84;;;-6.06;100.00
12666;BME280;58531;59.050;17.416;2023-11-18T00:43:15;101752.69;;;-6.13;100.00
12666;BME280;58531;59.050;17.416;2023-11-18T00:45:42;101758.59;;;-5.99;100.00
12666;BME280;58531;59.050;17.416;2023-11-18T00:48:10;101756.13;;;-6.04;100.00
12666;BME280;58531;59.050;17.416;2023-11-18T00:50:38;101754.00;;;-6.02;100.00
12666;BME280;58531;59.050;17.416;2023-11-18T00:53:05;101749.44;;;-5.96;100.00
12666;BME280;58531;59.050;17.416;2023-11-18T00:55:32;101749.16;;;-5.95;100.00
12666;BME280;58531;59.050;17.416;2023-11-18T00:57:58;101756.34;;;-5.92;100.00
12666;BME280;58531;59.050;17.416;2023-11-18T01:00:25;101750.41;;;-5.84;100.00
12666;BME280;58531;59.050;17.416;2023-11-18T01:02:53;101755.94;;;-5.77;100.00
12666;BME280;58531;59.050;17.416;2023-11-18T01:05:20;101763.00;;;-5.69;100.00
12666;BME280;58531;59.050;17.416;2023-11-18T01:07:49;101759.66;;;-5.70;100.00
12666;BME280;58531;59.050;17.416;2023-11-18T01:10:16;101758.94;;;-5.62;100.00
12666;BME280;58531;59.050;17.416;2023-11-18T01:12:44;101771.94;;;-5.62;100.00
12666;BME280;58531;59.050;17.416;2023-11-18T01:15:11;101771.03;;;-5.57;100.00
12666;BME280;58531;59.050;17.416;2023-11-18T01:17:39;101771.19;;;-5.54;100.00
12666;BME280;58531;59.050;17.416;2023-11-18T01:20:07;101771.59;;;-5.38;100.00
12666;BME280;58531;59.050;17.416;2023-11-18T01:22:35;101779.44;;;-5.21;100.00
12666;BME280;58531;59.050;17.416;2023-11-18T01:25:04;101778.25;;;-5.15;100.00
12666;BME280;58531;59.050;17.416;2023-11-18T01:27:31;101780.41;;;-5.09;100.00
12666;BME280;58531;59.050;17.416;2023-11-18T01:29:59;101773.66;;;-5.18;100.00
12666;BME280;58531;59.050;17.416;2023-11-18T01:32:26;101771.31;;;-5.28;100.00
12666;BME280;58531;59.050;17.416;2023-11-18T01:34:55;101765.75;;;-5.35;100.00
12666;BME280;58531;59.050;17.416;2023-11-18T01:37:22;101764.81;;;-5.48;100.00
12666;BME280;58531;59.050;17.416;2023-11-18T01:39:49;101764.31;;;-5.58;100.00
12666;BME280;58531;59.050;17.416;2023-11-18T01:42:18;101758.41;;;-5.72;100.00
12666;BME280;58531;59.050;17.416;2023-11-18T01:44:45;101749.34;;;-5.83;100.00
12666;BME280;58531;59.050;17.416;2023-11-18T01:47:12;101749.81;;;-5.81;100.00
12666;BME280;58531;59.050;17.416;2023-11-18T01:49:40;101746.16;;;-5.80;100.00
12666;BME280;58531;59.050;17.416;2023-11-18T01:52:09;101750.44;;;-5.76;100.00
12666;BME280;58531;59.050;17.416;2023-11-18T01:54:38;101741.56;;;-5.75;100.00
12666;BME280;58531;59.050;17.416;2023-11-18T01:57:05;101739.41;;;-5.81;100.00
12666;BME280;58531;59.050;17.416;2023-11-18T01:59:36;101737.13;;;-5.82;100.00
12666;BME280;58531;59.050;17.416;2023-11-18T02:02:04;101733.53;;;-5.95;100.00
12666;BME280;58531;59.050;17.416;2023-11-18T02:04:31;101737.31;;;-6.01;100.00
12666;BME280;58531;59.050;17.416;2023-11-18T02:06:59;101743.25;;;-6.09;100.00
12666;BME280;58531;59.050;17.416;2023-11-18T02:09:29;101743.94;;;-6.17;100.00
12666;BME280;58531;59.050;17.416;2023-11-18T02:12:00;101748.66;;;-6.19;100.00
12666;BME280;58531;59.050;17.416;2023-11-18T02:14:31;101746.44;;;-6.12;100.00
12666;BME280;58531;59.050;17.416;2023-11-18T02:17:05;101752.09;;;-6.10;100.00
12666;BME280;58531;59.050;17.416;2023-11-18T02:19:35;101750.91;;;-6.04;100.00
12666;BME280;58531;59.050;17.416;2023-11-18T02:22:02;101753.03;;;-6.06;100.00
12666;BME280;58531;59.050;17.416;2023-11-18T02:24:32;101751.94;;;-6.13;100.00
12666;BME280;58531;59.050;17.416;2023-11-18T02:27:05;101740.88;;;-6.19;100.00
12666;BME280;58531;59.050;17.416;2023-11-18T02:29:33;101747.72;;;-6.23;100.00
12666;BME280;58531;59.050;17.416;2023-11-18T02:32:09;101746.78;;;-6.27;100.00
12666;BME280;58531;59.050;17.416;2023-11-18T02:34:42;101744.13;;;-6.35;100.00
12666;BME280;58531;59.050;17.416;2023-11-18T02:37:13;101752.38;;;-6.33;100.00
12666;BME280;58531;59.050;17.416;2023-11-18T02:39:43;101752.97;;;-6.36;100.00
12666;BME280;58531;59.050;17.416;2023-11-18T02:42:14;101753.72;;;-6.36;100.00
12666;BME280;58531;59.050;17.416;2023-11-18T02:44:42;101751.91;;;-6.35;100.00
12666;BME280;58531;59.050;17.416;2023-11-18T02:47:10;101753.63;;;-6.31;100.00
12666;BME280;58531;59.050;17.416;2023-11-18T02:49:37;101751.97;;;-6.27;100.00
12666;BME280;58531;59.050;17.416;2023-11-18T02:52:04;101757.75;;;-6.30;100.00
12666;BME280;58531;59.050;17.416;2023-11-18T02:54:31;101756.22;;;-6.31;100.00
12666;BME280;58531;59.050;17.416;2023-11-18T02:56:58;101743.81;;;-6.34;100.00
12666;BME280;58531;59.050;17.416;2023-11-18T02:59:27;101754.50;;;-6.35;100.00
12666;BME280;58531;59.050;17.416;2023-11-18T03:01:55;101749.16;;;-6.39;100.00
12666;BME280;58531;59.050;17.416;2023-11-18T03:04:22;101755.41;;;-6.40;100.00
12666;BME280;58531;59.050;17.416;2023-11-18T03:06:50;101761.66;;;-6.41;100.00
12666;BME280;58531;59.050;17.416;2023-11-18T03:09:17;101758.81;;;-6.31;100.00
12666;BME280;58531;59.050;17.416;2023-11-18T03:11:44;101757.00;;;-6.30;100.00
12666;BME280;58531;59.050;17.416;2023-11-18T03:14:11;101760.81;;;-6.28;100.00
12666;BME280;58531;59.050;17.416;2023-11-18T03:16:39;101760.97;;;-6.11;100.00
12666;BME280;58531;59.050;17.416;2023-11-18T03:19:06;101777.03;;;-5.87;100.00
12666;BME280;58531;59.050;17.416;2023-11-18T03:21:34;101769.41;;;-5.75;100.00
12666;BME280;58531;59.050;17.416;2023-11-18T03:24:02;101772.94;;;-5.71;100.00
12666;BME280;58531;59.050;17.416;2023-11-18T03:26:29;101777.41;;;-5.72;100.00
12666;BME280;58531;59.050;17.416;2023-11-18T03:28:57;101775.44;;;-5.66;100.00
12666;BME280;58531;59.050;17.416;2023-11-18T03:31:24;101768.59;;;-5.54;100.00
12666;BME280;58531;59.050;17.416;2023-11-18T03:33:53;101774.34;;;-5.35;100.00
12666;BME280;58531;59.050;17.416;2023-11-18T03:36:19;101773.03;;;-5.15;100.00
12666;BME280;58531;59.050;17.416;2023-11-18T03:38:46;101774.19;;;-4.82;100.00
12666;BME280;58531;59.050;17.416;2023-11-18T03:41:13;101777.16;;;-4.59;100.00
12666;BME280;58531;59.050;17.416;2023-11-18T03:43:40;101769.81;;;-4.40;100.00
12666;BME280;58531;59.050;17.416;2023-11-18T03:46:07;101772.72;;;-4.16;100.00
12666;BME280;58531;59.050;17.416;2023-11-18T03:48:34;101769.78;;;-3.97;100.00
12666;BME280;58531;59.050;17.416;2023-11-18T03:51:03;101764.41;;;-3.84;100.00
12666;BME280;58531;59.050;17.416;2023-11-18T03:53:30;101760.97;;;-3.76;100.00
12666;BME280;58531;59.050;17.416;2023-11-18T03:55:59;101755.59;;;-3.71;100.00
12666;BME280;58531;59.050;17.416;2023-11-18T03:58:26;101754.34;;;-3.65;100.00
12666;BME280;58531;59.050;17.416;2023-11-18T04:00:53;101756.66;;;-3.63;100.00
12666;BME280;58531;59.050;17.416;2023-11-18T04:03:20;101751.56;;;-3.60;100.00
12666;BME280;58531;59.050;17.416;2023-11-18T04:05:47;101754.31;;;-3.56;100.00
12666;BME280;58531;59.050;17.416;2023-11-18T04:08:15;101762.59;;;-3.54;100.00
12666;BME280;58531;59.050;17.416;2023-11-18T04:10:42;101754.47;;;-3.53;100.00
12666;BME280;58531;59.050;17.416;2023-11-18T04:13:11;101754.94;;;-3.51;100.00
12666;BME280;58531;59.050;17.416;2023-11-18T04:15:38;101748.81;;;-3.55;100.00
12666;BME280;58531;59.050;17.416;2023-11-18T04:18:05;101745.56;;;-3.52;100.00
12666;BME280;58531;59.050;17.416;2023-11-18T04:20:32;101754.59;;;-3.50;100.00
12666;BME280;58531;59.050;17.416;2023-11-18T04:22:59;101748.00;;;-3.47;100.00
12666;BME280;58531;59.050;17.416;2023-11-18T04:25:27;101744.78;;;-3.44;100.00
12666;BME280;58531;59.050;17.416;2023-11-18T04:27:54;101754.59;;;-3.41;100.00
12666;BME280;58531;59.050;17.416;2023-11-18T04:30:21;101747.22;;;-3.39;100.00
12666;BME280;58531;59.050;17.416;2023-11-18T04:32:48;101745.06;;;-3.37;100.00
12666;BME280;58531;59.050;17.416;2023-11-18T04:35:18;101746.59;;;-3.36;100.00
12666;BME280;58531;59.050;17.416;2023-11-18T04:37:47;101745.19;;;-3.34;100.00
12666;BME280;58531;59.050;17.416;2023-11-18T04:40:14;101750.28;;;-3.37;100.00
12666;BME280;58531;59.050;17.416;2023-11-18T04:42:43;101748.88;;;-3.35;100.00
12666;BME280;58531;59.050;17.416;2023-11-18T04:45:10;101754.66;;;-3.29;100.00
12666;BME280;58531;59.050;17.416;2023-11-18T04:47:37;101737.91;;;-3.28;100.00
12666;BME280;58531;59.050;17.416;2023-11-18T04:50:05;101739.16;;;-3.26;100.00
12666;BME280;58531;59.050;17.416;2023-11-18T04:52:33;101737.44;;;-3.22;100.00
12666;BME280;58531;59.050;17.416;2023-11-18T04:55:00;101739.09;;;-3.17;100.00
12666;BME280;58531;59.050;17.416;2023-11-18T04:57:28;101733.25;;;-3.14;100.00
12666;BME280;58531;59.050;17.416;2023-11-18T04:59:56;101732.94;;;-3.13;100.00
12666;BME280;58531;59.050;17.416;2023-11-18T05:02:23;101733.84;;;-3.09;100.00
12666;BME280;58531;59.050;17.416;2023-11-18T05:04:50;101738.13;;;-3.04;100.00
12666;BME280;58531;59.050;17.416;2023-11-18T05:07:17;101740.56;;;-2.99;100.00
12666;BME280;58531;59.050;17.416;2023-11-18T05:09:44;101739.91;;;-2.96;100.00
12666;BME280;58531;59.050;17.416;2023-11-18T05:12:11;101735.59;;;-2.92;100.00
12666;BME280;58531;59.050;17.416;2023-11-18T05:14:38;101731.25;;;-2.88;100.00
12666;BME280;58531;59.050;17.416;2023-11-18T05:17:06;101732.16;;;-2.84;100.00
12666;BME280;58531;59.050;17.416;2023-11-18T05:19:34;101736.44;;;-2.80;100.00
12666;BME280;58531;59.050;17.416;2023-11-18T05:22:01;101739.16;;;-2.76;100.00
12666;BME280;58531;59.050;17.416;2023-11-18T05:24:28;101740.06;;;-2.72;100.00
12666;BME280;58531;59.050;17.416;2023-11-18T05:26:55;101730.50;;;-2.68;100.00
12666;BME280;58531;59.050;17.416;2023-11-18T05:29:21;101731.13;;;-2.71;100.00
12666;BME280;58531;59.050;17.416;2023-11-18T05:31:51;101727.56;;;-2.67;100.00
12666;BME280;58531;59.050;17.416;2023-11-18T05:34:19;101731.56;;;-2.69;100.00
12666;BME280;58531;59.050;17.416;2023-11-18T05:36:47;101730.38;;;-2.72;100.00
12666;BME280;58531;59.050;17.416;2023-11-18T05:39:16;101729.59;;;-2.72;100.00
12666;BME280;58531;59.050;17.416;2023-11-18T05:41:45;101728.84;;;-2.73;100.00
12666;BME280;58531;59.050;17.416;2023-11-18T05:44:15;101728.50;;;-2.71;100.00
12666;BME280;58531;59.050;17.416;2023-11-18T05:46:45;101729.59;;;-2.72;100.00
12666;BME280;58531;59.050;17.416;2023-11-18T05:49:12;101737.13;;;-2.71;100.00
12666;BME280;58531;59.050;17.416;2023-11-18T05:51:41;101726.50;;;-2.66;100.00
12666;BME280;58531;59.050;17.416;2023-11-18T05:54:08;101733.56;;;-2.66;100.00
12666;BME280;58531;59.050;17.416;2023-11-18T05:56:35;101733.44;;;-2.70;100.00
12666;BME280;58531;59.050;17.416;2023-11-18T05:59:02;101734.97;;;-2.69;100.00
12666;BME280;58531;59.050;17.416;2023-11-18T06:01:29;101738.34;;;-2.68;100.00
12666;BME280;58531;59.050;17.416;2023-11-18T06:03:57;101741.41;;;-2.66;100.00
12666;BME280;58531;59.050;17.416;2023-11-18T06:06:24;101744.47;;;-2.64;100.00
12666;BME280;58531;59.050;17.416;2023-11-18T06:08:53;101747.97;;;-2.60;100.00
12666;BME280;58531;59.050;17.416;2023-11-18T06:11:20;101743.19;;;-2.58;100.00
12666;BME280;58531;59.050;17.416;2023-11-18T06:13:47;101749.94;;;-2.57;100.00
12666;BME280;58531;59.050;17.416;2023-11-18T06:16:15;101743.63;;;-2.56;100.00
12666;BME280;58531;59.050;17.416;2023-11-18T06:18:43;101747.91;;;-2.52;100.00
12666;BME280;58531;59.050;17.416;2023-11-18T06:21:14;101745.44;;;-2.48;100.00
12666;BME280;58531;59.050;17.416;2023-11-18T06:23:41;101745.53;;;-2.45;100.00
12666;BME280;58531;59.050;17.416;2023-11-18T06:26:09;101749.38;;;-2.42;100.00
12666;BME280;58531;59.050;17.416;2023-11-18T06:28:38;101752.00;;;-2.42;100.00
12666;BME280;58531;59.050;17.416;2023-11-18T06:31:05;101753.19;;;-2.40;100.00
12666;BME280;58531;59.050;17.416;2023-11-18T06:33:36;101753.19;;;-2.40;100.00
12666;BME280;58531;59.050;17.416;2023-11-18T06:36:06;101758.13;;;-2.38;100.00
12666;BME280;58531;59.050;17.416;2023-11-18T06:38:33;101749.63;;;-2.35;100.00
12666;BME280;58531;59.050;17.416;2023-11-18T06:41:01;101759.00;;;-2.34;100.00
12666;BME280;58531;59.050;17.416;2023-11-18T06:43:34;101759.56;;;-2.29;100.00
12666;BME280;58531;59.050;17.416;2023-11-18T06:46:17;101765.34;;;-2.24;100.00
12666;BME280;58531;59.050;17.416;2023-11-18T06:48:46;101765.16;;;-2.19;100.00
12666;BME280;58531;59.050;17.416;2023-11-18T06:51:14;101760.38;;;-2.17;100.00
12666;BME280;58531;59.050;17.416;2023-11-18T06:53:42;101761.59;;;-2.14;100.00
12666;BME280;58531;59.050;17.416;2023-11-18T06:56:09;101763.56;;;-2.11;100.00
12666;BME280;58531;59.050;17.416;2023-11-18T06:58:38;101754.19;;;-2.12;100.00
12666;BME280;58531;59.050;17.416;2023-11-18T07:01:06;101747.53;;;-2.10;100.00
12666;BME280;58531;59.050;17.416;2023-11-18T07:03:33;101748.63;;;-2.11;100.00
12666;BME280;58531;59.050;17.416;2023-11-18T07:06:00;101745.25;;;-2.11;100.00
12666;BME280;58531;59.050;17.416;2023-11-18T07:08:27;101752.47;;;-2.08;100.00
12666;BME280;58531;59.050;17.416;2023-11-18T07:10:54;101762.16;;;-2.09;100.00
12666;BME280;58531;59.050;17.416;2023-11-18T07:13:22;101753.66;;;-2.06;100.00
12666;BME280;58531;59.050;17.416;2023-11-18T07:15:50;101759.34;;;-2.04;100.00
12666;BME280;58531;59.050;17.416;2023-11-18T07:18:19;101754.84;;;-2.03;100.00
12666;BME280;58531;59.050;17.416;2023-11-18T07:20:47;101760.22;;;-2.00;100.00
12666;BME280;58531;59.050;17.416;2023-11-18T07:23:14;101759.16;;;-1.99;100.00
12666;BME280;58531;59.050;17.416;2023-11-18T07:25:43;101761.31;;;-2.01;100.00
12666;BME280;58531;59.050;17.416;2023-11-18T07:28:10;101761.31;;;-2.01;100.00
12666;BME280;58531;59.050;17.416;2023-11-18T07:30:36;101766.00;;;-1.94;100.00
12666;BME280;58531;59.050;17.416;2023-11-18T07:33:05;101762.22;;;-1.97;100.00
12666;BME280;58531;59.050;17.416;2023-11-18T07:35:33;101767.88;;;-1.95;100.00
12666;BME280;58531;59.050;17.416;2023-11-18T07:38:02;101767.53;;;-1.93;100.00
12666;BME280;58531;59.050;17.416;2023-11-18T07:40:29;101776.63;;;-1.91;100.00
12666;BME280;58531;59.050;17.416;2023-11-18T07:42:55;101768.88;;;-1.87;100.00
12666;BME280;58531;59.050;17.416;2023-11-18T07:45:22;101767.47;;;-1.85;100.00
12666;BME280;58531;59.050;17.416;2023-11-18T07:47:49;101763.34;;;-1.86;100.00
12666;BME280;58531;59.050;17.416;2023-11-18T07:50:18;101767.28;;;-1.80;100.00
12666;BME280;58531;59.050;17.416;2023-11-18T07:52:46;101762.69;;;-1.83;100.00
12666;BME280;58531;59.050;17.416;2023-11-18T07:55:14;101765.94;;;-1.86;100.00
12666;BME280;58531;59.050;17.416;2023-11-18T07:57:41;101762.91;;;-1.88;100.00
12666;BME280;58531;59.050;17.416;2023-11-18T08:00:09;101762.09;;;-1.88;100.00
12666;BME280;58531;59.050;17.416;2023-11-18T08:02:36;101764.63;;;-1.92;100.00
12666;BME280;58531;59.050;17.416;2023-11-18T08:05:03;101774.75;;;-1.90;100.00
12666;BME280;58531;59.050;17.416;2023-11-18T08:07:34;101787.53;;;-1.89;100.00
12666;BME280;58531;59.050;17.416;2023-11-18T08:10:01;101779.69;;;-1.89;100.00
12666;BME280;58531;59.050;17.416;2023-11-18T08:12:31;101777.06;;;-1.89;100.00
12666;BME280;58531;59.050;17.416;2023-11-18T08:14:58;101780.13;;;-1.87;100.00
12666;BME280;58531;59.050;17.416;2023-11-18T08:17:25;101778.91;;;-1.89;100.00
12666;BME280;58531;59.050;17.416;2023-11-18T08:19:52;101786.66;;;-1.93;100.00
12666;BME280;58531;59.050;17.416;2023-11-18T08:22:19;101783.16;;;-1.97;100.00
12666;BME280;58531;59.050;17.416;2023-11-18T08:24:50;101785.88;;;-1.93;100.00
12666;BME280;58531;59.050;17.416;2023-11-18T08:27:17;101782.50;;;-1.94;100.00
12666;BME280;58531;59.050;17.416;2023-11-18T08:29:44;101786.19;;;-1.95;100.00
12666;BME280;58531;59.050;17.416;2023-11-18T08:32:12;101778.91;;;-1.89;100.00
12666;BME280;58531;59.050;17.416;2023-11-18T08:34:38;101785.38;;;-1.87;100.00
12666;BME280;58531;59.050;17.416;2023-11-18T08:37:06;101783.84;;;-1.88;100.00
12666;BME280;58531;59.050;17.416;2023-11-18T08:39:32;101790.91;;;-1.88;100.00
12666;BME280;58531;59.050;17.416;2023-11-18T08:42:01;101790.91;;;-1.88;100.00
12666;BME280;58531;59.050;17.416;2023-11-18T08:44:28;101785.03;;;-1.85;100.00
12666;BME280;58531;59.050;17.416;2023-11-18T08:46:55;101797.47;;;-1.82;100.00
12666;BME280;58531;59.050;17.416;2023-11-18T08:49:23;101799.09;;;-1.78;100.00
12666;BME280;58531;59.050;17.416;2023-11-18T08:51:51;101791.69;;;-1.88;100.00
12666;BME280;58531;59.050;17.416;2023-11-18T08:54:21;101796.03;;;-1.92;100.00
12666;BME280;58531;59.050;17.416;2023-11-18T08:57:04;101794.16;;;-1.91;100.00
12666;BME280;58531;59.050;17.416;2023-11-18T08:59:45;101792.84;;;-1.97;100.00
12666;BME280;58531;59.050;17.416;2023-11-18T09:02:12;101788.63;;;-1.90;100.00
12666;BME280;58531;59.050;17.416;2023-11-18T09:04:41;101782.75;;;-1.87;100.00
12666;BME280;58531;59.050;17.416;2023-11-18T09:07:09;101790.59;;;-1.75;100.00
12666;BME280;58531;59.050;17.416;2023-11-18T09:09:37;101792.78;;;-1.77;100.00
12666;BME280;58531;59.050;17.416;2023-11-18T09:12:07;101789.63;;;-1.82;100.00
12666;BME280;58531;59.050;17.416;2023-11-18T09:14:34;101797.81;;;-1.84;100.00
12666;BME280;58531;59.050;17.416;2023-11-18T09:17:01;101792.78;;;-1.89;100.00
12666;BME280;58531;59.050;17.416;2023-11-18T09:19:28;101801.91;;;-1.95;100.00
12666;BME280;58531;59.050;17.416;2023-11-18T09:21:55;101801.56;;;-1.93;100.00
12666;BME280;58531;59.050;17.416;2023-11-18T09:24:22;101792.31;;;-1.91;100.00
12666;BME280;58531;59.050;17.416;2023-11-18T09:26:50;101798.44;;;-1.87;100.00
12666;BME280;58531;59.050;17.416;2023-11-18T09:29:18;101799.66;;;-1.84;100.00
12666;BME280;58531;59.050;17.416;2023-11-18T09:31:49;101796.91;;;-1.88;100.00
12666;BME280;58531;59.050;17.416;2023-11-18T09:34:18;101804.97;;;-1.93;100.00
12666;BME280;58531;59.050;17.416;2023-11-18T09:36:53;101795.38;;;-1.89;100.00
12666;BME280;58531;59.050;17.416;2023-11-18T09:39:20;101798.00;;;-1.89;100.00
12666;BME280;58531;59.050;17.416;2023-11-18T09:42:04;101785.22;;;-1.90;100.00
12666;BME280;58531;59.050;17.416;2023-11-18T09:44:36;101790.78;;;-1.92;100.00
12666;BME280;58531;59.050;17.416;2023-11-18T09:47:07;101796.28;;;-1.85;100.00
12666;BME280;58531;59.050;17.416;2023-11-18T09:49:40;101808.09;;;-1.79;100.00
12666;BME280;58531;59.050;17.416;2023-11-18T09:52:15;101797.16;;;-1.81;100.00
12666;BME280;58531;59.050;17.416;2023-11-18T09:54:50;101798.25;;;-1.82;100.00
12666;BME280;58531;59.050;17.416;2023-11-18T09:57:27;101797.03;;;-1.84;100.00
12666;BME280;58531;59.050;17.416;2023-11-18T10:00:01;101797.66;;;-1.87;100.00
12666;BME280;58531;59.050;17.416;2023-11-18T10:02:45;101791.16;;;-1.81;100.00
12666;BME280;58531;59.050;17.416;2023-11-18T10:05:12;101793.56;;;-1.76;100.00
12666;BME280;58531;59.050;17.416;2023-11-18T10:07:41;101793.31;;;-1.83;100.00
12666;BME280;58531;59.050;17.416;2023-11-18T10:10:08;101790.25;;;-1.85;100.00
12666;BME280;58531;59.050;17.416;2023-11-18T10:12:41;101791.47;;;-1.83;100.00
12666;BME280;58531;59.050;17.416;2023-11-18T10:15:11;101791.25;;;-1.78;100.00
12666;BME280;58531;59.050;17.416;2023-11-18T10:17:41;101793.47;;;-1.80;100.00
12666;BME280;58531;59.050;17.416;2023-11-18T10:20:21;101789.31;;;-1.81;100.00
12666;BME280;58531;59.050;17.416;2023-11-18T10:23:05;101791.16;;;-1.81;100.00
12666;BME280;58531;59.050;17.416;2023-11-18T10:25:32;101799.34;;;-1.83;100.00
12666;BME280;58531;59.050;17.416;2023-11-18T10:28:01;101791.34;;;-1.86;100.00
12666;BME280;58531;59.050;17.416;2023-11-18T10:30:30;101798.00;;;-1.89;100.00
12666;BME280;58531;59.050;17.416;2023-11-18T10:32:59;101795.00;;;-1.79;100.00
12666;BME280;58531;59.050;17.416;2023-11-18T10:35:31;101789.97;;;-1.72;100.00
12666;BME280;58531;59.050;17.416;2023-11-18T10:38:01;101789.31;;;-1.69;100.00
12666;BME280;58531;59.050;17.416;2023-11-18T10:40:31;101796.22;;;-1.64;100.00
12666;BME280;58531;59.050;17.416;2023-11-18T10:43:03;101788.88;;;-1.71;100.00
12666;BME280;58531;59.050;17.416;2023-11-18T10:45:36;101787.56;;;-1.77;100.00
12666;BME280;58531;59.050;17.416;2023-11-18T10:48:05;101784.38;;;-1.82;100.00
12666;BME280;58531;59.050;17.416;2023-11-18T10:50:32;101794.75;;;-1.86;100.00
12666;BME280;58531;59.050;17.416;2023-11-18T10:53:00;101789.97;;;-1.84;100.00
12666;BME280;58531;59.050;17.416;2023-11-18T10:55:35;101788.53;;;-1.81;100.00
12666;BME280;58531;59.050;17.416;2023-11-18T10:58:02;101793.66;;;-1.85;100.00
12666;BME280;58531;59.050;17.416;2023-11-18T11:00:45;101793.22;;;-1.87;100.00
12666;BME280;58531;59.050;17.416;2023-11-18T11:03:12;101794.59;;;-1.89;100.00
12666;BME280;58531;59.050;17.416;2023-11-18T11:05:40;101790.59;;;-1.87;100.00
12666;BME280;58531;59.050;17.416;2023-11-18T11:08:08;101782.09;;;-1.84;100.00
12666;BME280;58531;59.050;17.416;2023-11-18T11:10:39;101785.16;;;-1.82;100.00
12666;BME280;58531;59.050;17.416;2023-11-18T11:13:07;101786.69;;;-1.81;100.00
12666;BME280;58531;59.050;17.416;2023-11-18T11:15:40;101781.66;;;-1.74;100.00
12666;BME280;58531;59.050;17.416;2023-11-18T11:18:12;101785.38;;;-1.87;100.00
12666;BME280;58531;59.050;17.416;2023-11-18T11:20:52;101793.22;;;-1.87;100.00
12666;BME280;58531;59.050;17.416;2023-11-18T11:23:29;101792.22;;;-1.82;100.00
12666;BME280;58531;59.050;17.416;2023-11-18T11:26:07;101796.28;;;-1.85;100.00
12666;BME280;58531;59.050;17.416;2023-11-18T11:28:42;101791.44;;;-1.95;100.00
12666;BME280;58531;59.050;17.416;2023-11-18T11:34:02;101794.94;;;-1.91;100.00
12666;BME280;58531;59.050;17.416;2023-11-18T11:36:37;101790.59;;;-1.87;100.00
12666;BME280;58531;59.050;17.416;2023-11-18T11:39:07;101794.41;;;-1.84;100.00
12666;BME280;58531;59.050;17.416;2023-11-18T11:41:43;101786.88;;;-1.86;100.00
12666;BME280;58531;59.050;17.416;2023-11-18T11:44:12;101786.25;;;-1.83;100.00
12666;BME280;58531;59.050;17.416;2023-11-18T11:46:43;101791.94;;;-1.81;100.00
12666;BME280;58531;59.050;17.416;2023-11-18T11:49:11;101790.50;;;-1.78;100.00
12666;BME280;58531;59.050;17.416;2023-11-18T11:51:47;101792.38;;;-1.79;100.00
12666;BME280;58531;59.050;17.416;2023-11-18T11:54:20;101792.38;;;-1.79;100.00
12666;BME280;58531;59.050;17.416;2023-11-18T11:56:48;101791.69;;;-1.76;100.00
12666;BME280;58531;59.050;17.416;2023-11-18T11:59:34;101790.41;;;-1.82;100.00
12666;BME280;58531;59.050;17.416;2023-11-18T12:02:04;101792.22;;;-1.82;100.00
12666;BME280;58531;59.050;17.416;2023-11-18T12:04:34;101798.25;;;-1.82;100.00
12666;BME280;58531;59.050;17.416;2023-11-18T12:07:04;101796.66;;;-1.95;100.00
12666;BME280;58531;59.050;17.416;2023-11-18T12:09:35;101792.72;;;-2.01;100.00
12666;BME280;58531;59.050;17.416;2023-11-18T12:12:05;101798.25;;;-2.02;100.00
12666;BME280;58531;59.050;17.416;2023-11-18T12:14:49;101790.09;;;-2.01;100.00
12666;BME280;58531;59.050;17.416;2023-11-18T12:17:19;101784.97;;;-2.09;100.00
12666;BME280;58531;59.050;17.416;2023-11-18T12:19:50;101788.25;;;-2.21;100.00
12666;BME280;58531;59.050;17.416;2023-11-18T12:22:24;101789.69;;;-2.23;100.00
12666;BME280;58531;59.050;17.416;2023-11-18T12:27:56;101784.56;;;-2.20;100.00
12666;BME280;58531;59.050;17.416;2023-11-18T12:30:43;101797.44;;;-2.15;100.00
12666;BME280;58531;59.050;17.416;2023-11-18T12:33:20;101792.22;;;-2.15;100.00
12666;BME280;58531;59.050;17.416;2023-11-18T12:42:37;101792.13;;;-2.38;100.00
12666;BME280;58531;59.050;17.416;2023-11-18T12:45:35;101782.41;;;-2.38;100.00
12666;BME280;58531;59.050;17.416;2023-11-18T12:48:14;101783.31;;;-2.34;100.00
12666;BME280;58531;59.050;17.416;2023-11-18T12:50:43;101784.09;;;-2.33;100.00
12666;BME280;58531;59.050;17.416;2023-11-18T12:53:11;101785.47;;;-2.36;100.00